Pilot information for Kala Airport

[ general | frequencies | runways | weather | notam | navaids | links ]

Caution: This page displays community-maintained data: information may be missing, incorrect, or out of date. Please confirm with an official source before making travel plans.

General information for Kala Airport

Airport codes: FZFL
Type: local airport(light traffic)
Scheduled airline service: no
Serves: Kala, Equateur, Congo (Kinshasa)
Latitude: 3.383611 | 3 23.016667 N | N03 23 00
Longitude: 18.654722 | 18 39.283333 E | E018 39 16
Field elevation: 1,640 ft/500 m MSL

Radio communication frequencies for Kala Airport

No communications frequencies known for Kala Airport.

Members can add and update frequencies.

Runways at Kala Airport

No runway information available for Kala Airport.

Members can add and update runway information.

Aviation weather for Kala Airport

Current conditions (METAR) for Kala Airport

Closest report is Bangui M'Poko International Airport, 61.5 nm (113.9 km) N. Retrieved 2015/07/29 14:00:

FEFF 291400Z 22009KT 170V280 9999 FEW023 28/20 Q1013 NOSIG

Forecast (TAF) for Kala Airport

Closest forecast is Bangui M'Poko International Airport, 61.5 nm (113.9 km) N. Retrieved 2015/08/01 00:00:

TAF FCBB 312300Z 0100/0206 25004KT 8000 BKN020= TAF FEFF 312300Z 0100/0206 VRB03KT CAVOK PROB30 
      TEMPO 0103/0106 4000 BR BKN005 
      BECMG 0110/0112 BKN026 FEW040CB 
      TEMPO 0114/0118 TSRA 
      BECMG 0119/0121 CAVOK

Notices to Airmen (NOTAM) for Kala Airport

Please confirm all NOTAMs at the original source! These are for information only, and may be wrong, out of date, or incomplete.

We have no current NOTAMs for Kala Airport. Please check with an official source to confirm.